createdAt,value
2022-10-05T00:09:37.844Z,29.4796
2022-10-05T00:24:39.672Z,29.2066
2022-10-05T00:39:41.532Z,29.5019
2022-10-05T00:54:43.374Z,29.622
2022-10-05T01:09:45.203Z,29.5477
2022-10-05T01:24:47.020Z,28.7906
2022-10-05T01:39:48.875Z,29.4208
2022-10-05T01:54:50.739Z,29.0828
2022-10-05T02:09:52.567Z,28.5436
2022-10-05T02:24:54.418Z,28.5857
2022-10-05T02:39:56.242Z,28.9819
2022-10-05T02:54:58.104Z,28.582
2022-10-05T03:10:01.239Z,27.9747
2022-10-05T03:25:03.327Z,28.8098
2022-10-05T03:40:05.219Z,28.7417
2022-10-05T03:55:07.078Z,28.2087
2022-10-05T04:10:08.948Z,29.4307
2022-10-05T04:25:10.784Z,30.0027
2022-10-05T04:40:12.635Z,30.1395
2022-10-05T04:55:14.494Z,29.8826
2022-10-05T05:10:16.333Z,30.2175
2022-10-05T05:25:18.152Z,29.8306
2022-10-05T05:40:19.999Z,29.1614
2022-10-05T05:55:24.354Z,30.0615
2022-10-05T06:10:28.354Z,30.0355
2022-10-05T06:25:30.199Z,29.1447
2022-10-05T06:40:31.972Z,29.3595
2022-10-05T06:55:33.811Z,28.8946
2022-10-05T07:10:35.666Z,28.4427
2022-10-05T07:25:37.509Z,27.5067
2022-10-05T07:40:39.331Z,27.5228
2022-10-05T07:55:41.140Z,26.2686
2022-10-05T08:10:42.953Z,25.5047
2022-10-05T08:25:44.810Z,25.5499
2022-10-05T08:40:46.659Z,26.372
2022-10-05T08:55:48.489Z,25.5561
2022-10-05T09:10:50.311Z,24.8931
2022-10-05T09:25:52.166Z,26.2581
2022-10-05T09:40:54.000Z,25.6211
2022-10-05T09:55:55.855Z,25.3023
2022-10-05T10:10:57.690Z,25.8452
2022-10-05T10:25:59.543Z,25.8712
2022-10-05T10:41:01.406Z,25.2732
2022-10-05T10:56:03.260Z,26.2872
2022-10-05T11:11:05.085Z,25.1432
2022-10-05T11:26:06.932Z,25.2602
2022-10-05T11:41:08.801Z,25.8712
2022-10-05T11:56:10.658Z,25.4224
2022-10-05T12:11:12.501Z,26.0402
2022-10-05T12:26:14.324Z,25.2534
2022-10-05T12:41:16.136Z,25.7833
2022-10-05T12:56:17.992Z,25.2992
2022-10-05T13:11:19.856Z,25.0844
2022-10-05T13:26:21.672Z,25.6242
2022-10-05T13:41:23.519Z,25.0875
2022-10-05T13:56:25.378Z,25.5431
2022-10-05T14:11:27.209Z,26.0006
2022-10-05T14:26:29.057Z,25.9003
2022-10-05T14:41:30.885Z,25.7542
2022-10-05T14:56:32.702Z,26.0173
2022-10-05T15:11:34.506Z,25.7022
2022-10-05T15:26:36.381Z,25.7641
2022-10-05T15:41:38.210Z,25.1141
2022-10-05T15:56:40.054Z,24.4703
2022-10-05T16:11:41.911Z,24.4703
2022-10-05T16:26:43.728Z,24.6455
2022-10-05T16:41:45.583Z,24.2326
2022-10-05T16:56:47.442Z,23.7225
2022-10-05T17:11:49.279Z,23.6346
2022-10-05T17:26:51.103Z,23.7584
2022-10-05T17:41:52.945Z,24.4827
2022-10-05T17:56:54.761Z,22.7735
2022-10-05T18:11:56.597Z,23.6414
2022-10-05T18:26:58.439Z,25.3345
2022-10-05T18:42:00.279Z,25.1494
2022-10-05T18:57:02.096Z,25.2602
2022-10-05T19:12:03.910Z,26.4073
2022-10-05T19:27:05.759Z,26.3002
2022-10-05T19:42:07.688Z,26.4921
2022-10-05T19:57:09.555Z,26.8883
2022-10-05T20:12:11.381Z,27.1062
2022-10-05T20:27:15.799Z,27.2102
2022-10-05T20:42:18.108Z,26.879
2022-10-05T20:57:19.975Z,27.0251
2022-10-05T21:12:21.922Z,26.905
2022-10-05T21:27:23.774Z,28.7083
2022-10-05T21:42:25.603Z,28.699
2022-10-05T21:57:27.450Z,27.7661
2022-10-05T22:12:29.287Z,28.0261
2022-10-05T22:27:31.375Z,27.802
2022-10-05T22:42:33.165Z,27.7079
2022-10-05T22:57:34.960Z,28.4359
2022-10-05T23:12:37.780Z,28.7578
2022-10-05T23:27:39.616Z,28.5108
2022-10-05T23:42:41.437Z,29.0698
2022-10-05T23:57:43.286Z,29.4146
